Time,TemperatureC,DewpointC,PressurehPa,WindDirection,WindDirectionDegrees,WindSpeedKMH,WindSpeedGustKMH,Humidity,HourlyPrecipMM,Conditions,Clouds,dailyrainMM,SolarRadiationWatts/m^2,UVIndex,SoftwareType,DateUTC
2026-05-09 00:04:57,18.1,9.8,986.6,NW,323,10.9,19.3,58.6,0.0,,,0.0,0,0,n/a,2026-05-08T12:04:57Z
2026-05-09 00:09:55,18.2,9.8,986.4,NW,309,11.3,20.9,58,0.0,,,0.0,0,0,n/a,2026-05-08T12:09:55Z
2026-05-09 00:14:58,18.2,9.6,986.5,NW,316,13.2,20.4,57,0.0,,,0.0,0,0,n/a,2026-05-08T12:14:58Z
2026-05-09 00:19:56,18.3,9.6,986.6,NW,310,14,25.9,57,0.0,,,0.0,0,0,n/a,2026-05-08T12:19:56Z
2026-05-09 00:24:57,18.5,9.6,986.6,NW,323,14.3,22.2,56.4,0.0,,,0.0,0,0,n/a,2026-05-08T12:24:57Z
2026-05-09 00:29:59,18.4,9.7,986.4,NW,316,11.8,25.7,56.7,0.0,,,0.0,0,0,n/a,2026-05-08T12:29:59Z
2026-05-09 00:34:54,18.4,9.5,986.3,NW,312,13.4,25.9,56.2,0.0,,,0.0,0,0,n/a,2026-05-08T12:34:54Z
2026-05-09 00:39:59,18.4,9.5,986.4,NW,323,13.6,32.2,56,0.0,,,0.0,0,0,n/a,2026-05-08T12:39:59Z
2026-05-09 00:44:58,18.4,9.7,986.4,NW,321,10.8,31.5,56.8,0.0,,,0.0,0,0,n/a,2026-05-08T12:44:58Z
2026-05-09 00:49:56,18.3,9.6,986.4,NW,326,12.6,24.1,57,0.0,,,0.0,0,0,n/a,2026-05-08T12:49:56Z
2026-05-09 00:54:58,18.2,9.5,986.3,NW,314,13.7,20.9,57,0.0,,,0.0,0,0,n/a,2026-05-08T12:54:58Z
2026-05-09 00:59:57,18.1,9.5,986.1,NW,308,15.6,27.8,57,0.0,,,0.0,0,0,n/a,2026-05-08T12:59:57Z
2026-05-09 01:04:55,18.1,9.4,985.7,NW,313,14,25.9,57,0.0,,,0.0,0,0,n/a,2026-05-08T13:04:55Z
2026-05-09 01:09:59,18.1,9.4,985.4,NW,308,14.1,27.4,57,0.0,,,0.0,0,0,n/a,2026-05-08T13:09:59Z
2026-05-09 01:14:59,18.2,9.5,985.7,NW,309,14.6,27.8,56.8,0.0,,,0.0,0,0,n/a,2026-05-08T13:14:59Z
2026-05-09 01:19:56,18.2,9.5,986.0,NW,310,13.2,20.9,57,0.0,,,0.0,0,0,n/a,2026-05-08T13:19:56Z
2026-05-09 01:24:58,18.1,9.5,986.1,WNW,291,8.3,18.5,57.4,0.0,,,0.0,0,0,n/a,2026-05-08T13:24:58Z
2026-05-09 01:29:56,17.9,9.5,986.1,WNW,296,9.3,19.3,58,0.0,,,0.0,0,0,n/a,2026-05-08T13:29:56Z
2026-05-09 01:34:59,17.7,9.6,985.9,WNW,303,11.3,32.2,59,0.0,,,0.0,0,0,n/a,2026-05-08T13:34:59Z
2026-05-09 01:39:58,17.6,9.6,985.6,WNW,293,19.2,37,59.3,0.0,,,0.0,0,0,n/a,2026-05-08T13:39:58Z
2026-05-09 01:44:57,17.4,9.9,985.0,NW,306,19.9,42.6,61.4,0.0,,,0.0,0,0,n/a,2026-05-08T13:44:57Z
2026-05-09 01:49:55,17,10.2,984.8,NW,311,25.9,40.7,64.3,0.0,,,0.0,0,0,n/a,2026-05-08T13:49:55Z
2026-05-09 01:54:54,16.5,10.3,984.2,NW,306,27.2,46.7,66.7,0.0,,,0.0,0,0,n/a,2026-05-08T13:54:54Z
2026-05-09 01:59:57,16.2,10.5,983.6,WNW,303,29.3,45.1,68.9,0.0,,,0.0,0,0,n/a,2026-05-08T13:59:57Z
2026-05-09 02:04:55,15.9,10.6,982.9,NW,307,30.5,51.5,71,0.0,,,0.0,0,0,n/a,2026-05-08T14:04:55Z
2026-05-09 02:09:55,15.9,10.5,984.3,WNW,296,23,51.8,70.7,0.0,,,0.0,0,0,n/a,2026-05-08T14:09:55Z
2026-05-09 02:14:58,16,10.5,985.3,WNW,283,12.3,31.5,70,0.0,,,0.0,0,0,n/a,2026-05-08T14:14:58Z
2026-05-09 02:19:55,16.1,10.6,985.8,WNW,293,11,20.9,70,0.0,,,0.0,0,0,n/a,2026-05-08T14:19:55Z
2026-05-09 02:24:54,16.1,10.6,986.2,WNW,292,10.6,18.5,70,0.0,,,0.0,0,0,n/a,2026-05-08T14:24:54Z
2026-05-09 02:29:54,16,10.7,986.2,WNW,292,5.8,18.5,70.9,0.0,,,0.0,0,0,n/a,2026-05-08T14:29:54Z
2026-05-09 02:34:56,16,10.7,986.3,West,261,2.1,11.1,71,0.0,,,0.0,0,0,n/a,2026-05-08T14:34:56Z
2026-05-09 02:39:59,15.8,10.6,986.4,NW,319,3.4,12.9,71.4,0.0,,,0.0,0,0,n/a,2026-05-08T14:39:59Z
2026-05-09 02:44:56,15.7,10.6,986.4,NW,306,4.5,13,72,0.0,,,0.0,0,0,n/a,2026-05-08T14:44:56Z
2026-05-09 02:49:57,15.5,10.5,986.9,NW,314,1.7,5.6,72,0.0,,,0.0,0,0,n/a,2026-05-08T14:49:57Z
2026-05-09 02:54:57,15.4,10.4,987.0,WNW,293,0.9,5.6,72,0.0,,,0.0,0,0,n/a,2026-05-08T14:54:57Z
2026-05-09 02:59:59,15.3,10.4,987.0,NW,307,3.3,16.1,72.2,0.0,,,0.0,0,0,n/a,2026-05-08T14:59:59Z
2026-05-09 03:04:56,15.2,10.4,986.8,NW,305,8.8,24.1,73,0.0,,,0.0,0,0,n/a,2026-05-08T15:04:56Z
2026-05-09 03:09:57,15.4,10.5,986.4,WNW,301,9.4,24.1,72.6,0.0,,,0.0,0,0,n/a,2026-05-08T15:09:57Z
2026-05-09 03:14:56,15.4,10.4,986.5,NW,304,2.9,9.3,72,0.0,,,0.0,0,0,n/a,2026-05-08T15:14:56Z
2026-05-09 03:19:59,15.4,10.4,986.5,WNW,292,2.4,6.4,72,0.0,,,0.0,0,0,n/a,2026-05-08T15:19:59Z
2026-05-09 03:24:55,15.3,10.3,986.5,WNW,302,1,5.6,72,0.0,,,0.0,0,0,n/a,2026-05-08T15:24:55Z
2026-05-09 03:29:59,15.2,10.2,986.2,NW,325,1.9,6.4,72,0.0,,,0.0,0,0,n/a,2026-05-08T15:29:59Z
2026-05-09 03:34:58,15.1,10.1,986.2,NE,42,2.7,6.4,72.4,0.0,,,0.0,0,0,n/a,2026-05-08T15:34:58Z
2026-05-09 03:39:57,14.8,10.1,986.3,East,91,4,6.4,73.4,0.0,,,0.0,0,0,n/a,2026-05-08T15:39:57Z
2026-05-09 03:44:59,14.6,10,986.7,SE,125,3.7,9.7,74.2,0.0,,,0.0,0,0,n/a,2026-05-08T15:44:59Z
2026-05-09 03:49:55,14.4,10,986.9,ESE,122,3.9,8,75,0.0,,,0.0,0,0,n/a,2026-05-08T15:49:55Z
2026-05-09 03:54:55,14.3,9.9,986.9,East,98,2.6,6.4,75,0.0,,,0.0,0,0,n/a,2026-05-08T15:54:55Z
2026-05-09 03:59:55,14.3,9.9,986.9,ENE,58,1.6,5.6,75,0.0,,,0.0,0,0,n/a,2026-05-08T15:59:55Z
2026-05-09 04:04:56,14.3,9.9,986.9,NNW,339,3.9,9.7,75,0.0,,,0.0,0,0,n/a,2026-05-08T16:04:56Z
2026-05-09 04:09:57,14.6,10,986.7,NW,316,8.8,18.5,73.8,0.0,,,0.0,0,0,n/a,2026-05-08T16:09:57Z
2026-05-09 04:14:54,15.1,10,986.6,NW,316,10.8,19.3,71.7,0.0,,,0.0,0,0,n/a,2026-05-08T16:14:54Z
2026-05-09 04:19:56,15.5,10,986.8,NW,313,8.1,13,70.2,0.0,,,0.0,0,0,n/a,2026-05-08T16:19:56Z
2026-05-09 04:24:54,15.6,10,986.9,NW,310,5.6,9.7,69.5,0.0,,,0.0,0,0,n/a,2026-05-08T16:24:54Z
2026-05-09 04:29:57,15.6,9.9,986.8,NW,316,5.8,9.7,69,0.0,,,0.0,0,0,n/a,2026-05-08T16:29:57Z
2026-05-09 04:34:59,15.5,10,986.7,NW,311,6.8,13,69.9,0.0,,,0.0,0,0,n/a,2026-05-08T16:34:59Z
2026-05-09 04:39:58,15.4,10,986.5,NW,313,7.1,16.1,70,0.0,,,0.0,0,0,n/a,2026-05-08T16:39:58Z
2026-05-09 04:44:55,15.4,10,986.6,WNW,296,4.9,16.7,70,0.0,,,0.0,0,0,n/a,2026-05-08T16:44:55Z
2026-05-09 04:49:58,15.4,9.8,986.8,NW,315,3.8,6.4,69,0.0,,,0.0,0,0,n/a,2026-05-08T16:49:58Z
2026-05-09 04:54:56,15.4,9.8,986.9,NW,311,4.8,9.7,69,0.0,,,0.0,0,0,n/a,2026-05-08T16:54:56Z
2026-05-09 04:59:53,15.5,9.8,986.9,NW,318,6.2,11.3,69,0.0,,,0.0,0,0,n/a,2026-05-08T16:59:53Z
2026-05-09 05:04:58,15.5,9.8,986.9,NW,316,7.6,14.5,69,0.0,,,0.0,0,0,n/a,2026-05-08T17:04:58Z
2026-05-09 05:09:57,15.5,9.7,986.9,NW,306,11.1,17.7,68.6,0.0,,,0.0,0,0,n/a,2026-05-08T17:09:57Z
2026-05-09 05:14:55,15.6,9.7,986.9,NW,307,7.3,18.5,68,0.0,,,0.0,0,0,n/a,2026-05-08T17:14:55Z
2026-05-09 05:19:57,15.6,9.6,987.1,WNW,296,5.7,13,67.3,0.0,,,0.0,0,0,n/a,2026-05-08T17:19:57Z
2026-05-09 05:24:55,15.7,9.6,987.2,WNW,298,4.8,13,67,0.0,,,0.0,0,0,n/a,2026-05-08T17:24:55Z
2026-05-09 05:29:59,15.7,9.6,987.3,WNW,284,3.9,11.3,67,0.0,,,0.0,0,0,n/a,2026-05-08T17:29:59Z
2026-05-09 05:34:56,15.7,9.6,987.5,West,277,5.1,16.7,67,0.0,,,0.0,0,0,n/a,2026-05-08T17:34:56Z
2026-05-09 05:39:55,15.7,9.6,987.8,West,266,3.1,9.7,67,0.0,,,0.0,0,0,n/a,2026-05-08T17:39:55Z
2026-05-09 05:44:58,15.6,9.6,988.1,West,264,2.8,5.6,67.8,0.0,,,0.0,0,0,n/a,2026-05-08T17:44:58Z
2026-05-09 05:49:54,15.3,9.5,988.2,WNW,295,2.5,6.4,68.4,0.0,,,0.0,0,0,n/a,2026-05-08T17:49:54Z
2026-05-09 05:54:58,15.1,9.7,988.7,NE,55,4,13,70.1,0.0,,,0.0,0,0,n/a,2026-05-08T17:54:58Z
2026-05-09 05:59:59,14.6,10,988.8,East,81,5.4,14.8,74.1,0.0,,,0.0,0,0,n/a,2026-05-08T17:59:59Z
2026-05-09 06:04:58,14.1,10.1,989.1,NE,36,3.4,9.7,76.6,0.0,,,0.0,0,0,n/a,2026-05-08T18:04:58Z
2026-05-09 06:09:55,13.7,10.1,989.1,ENE,68,2.7,6.4,78.7,0.0,,,0.0,0,0,n/a,2026-05-08T18:09:55Z
2026-05-09 06:14:54,13.4,10.1,989.1,NE,40,1,3.7,80.4,0.0,,,0.0,0,0,n/a,2026-05-08T18:14:54Z
2026-05-09 06:19:57,13.2,10.1,989.2,NE,38,1.9,6.4,81.9,0.0,,,0.0,0,0,n/a,2026-05-08T18:19:57Z
2026-05-09 06:24:53,13,10.2,989.4,NE,42,1.2,5.6,83.6,0.0,,,0.0,0,0,n/a,2026-05-08T18:24:53Z
2026-05-09 06:29:56,12.8,10.3,989.4,NW,314,2,5.6,84.6,0.0,,,0.0,0,0,n/a,2026-05-08T18:29:56Z
2026-05-09 06:34:54,12.8,10.4,989.6,NNE,27,1.9,3.7,85.5,0.0,,,0.0,0,0,n/a,2026-05-08T18:34:54Z
2026-05-09 06:39:57,12.7,10.5,989.6,East,94,1.5,5.6,86.5,0.0,,,0.0,0,0,n/a,2026-05-08T18:39:57Z
2026-05-09 06:44:54,12.7,10.6,989.7,East,85,2.1,5.6,87,0.0,,,0.0,0,0,n/a,2026-05-08T18:44:54Z
2026-05-09 06:49:56,12.6,10.6,989.8,NNE,21,1.4,5.6,87.8,0.0,,,0.0,0,0,n/a,2026-05-08T18:49:56Z
2026-05-09 06:54:55,12.6,10.7,989.9,NNE,30,1.5,5.6,88,0.0,,,0.0,0,0,n/a,2026-05-08T18:54:55Z
2026-05-09 06:59:54,12.6,10.8,990.1,East,86,2,6.4,88.8,0.0,,,0.0,0,0,n/a,2026-05-08T18:59:54Z
2026-05-09 07:04:59,12.6,10.8,990.2,NE,38,1.8,9.7,89,0.0,,,0.0,0,0,n/a,2026-05-08T19:04:59Z
2026-05-09 07:09:59,12.6,10.8,990.4,NW,318,2.8,9.7,89,0.0,,,0.0,0,0,n/a,2026-05-08T19:09:59Z
2026-05-09 07:14:55,12.6,10.8,990.5,NW,316,2.3,6.4,89,0.0,,,0.0,0,0,n/a,2026-05-08T19:14:55Z
2026-05-09 07:19:58,12.7,10.9,990.7,North,355,2.6,6.4,89,0.0,,,0.0,0,0,n/a,2026-05-08T19:19:58Z
2026-05-09 07:24:55,12.7,11,990.9,East,100,1.9,6.4,90,0.0,,,0.0,0,0,n/a,2026-05-08T19:24:55Z
2026-05-09 07:29:58,12.7,11.1,991.0,ESE,108,1.8,3.7,90,0.0,,,0.0,0,0,n/a,2026-05-08T19:29:58Z
2026-05-09 07:34:56,12.7,11,991.1,ENE,66,1.1,3.7,90,0.0,,,0.0,0,0,n/a,2026-05-08T19:34:56Z
2026-05-09 07:39:54,12.7,11.1,991.3,NE,50,0.9,3.7,90,0.0,,,0.0,0,0,n/a,2026-05-08T19:39:54Z
2026-05-09 07:44:57,12.7,11,991.4,North,4,1.2,3.7,90,0.0,,,0.0,0,0,n/a,2026-05-08T19:44:57Z
2026-05-09 07:49:59,12.7,11.1,991.5,NNW,336,1.4,3.7,90,0.0,,,0.0,0,0,n/a,2026-05-08T19:49:59Z
2026-05-09 07:54:56,12.7,11.2,991.6,West,277,2,5.6,90.2,0.0,,,0.0,0,0,n/a,2026-05-08T19:54:56Z
2026-05-09 07:59:54,12.8,11.3,991.6,WNW,301,2.3,6.4,91,0.0,,,0.0,0,0,n/a,2026-05-08T19:59:54Z
2026-05-09 08:04:58,12.8,11.4,991.9,NNW,337,1.3,5.6,91,0.0,,,0.0,0,0,n/a,2026-05-08T20:04:58Z
2026-05-09 08:09:55,12.8,11.4,991.9,NNW,339,1,3.7,91,0.0,,,0.0,5,0,n/a,2026-05-08T20:09:55Z
2026-05-09 08:14:59,12.8,11.4,992.0,NE,41,1.1,3.7,91,0.0,,,0.0,11,0,n/a,2026-05-08T20:14:59Z
2026-05-09 08:19:56,12.8,11.4,992.0,North,1,0.9,3.7,91,0.0,,,0.0,25,0,n/a,2026-05-08T20:19:56Z
2026-05-09 08:24:54,12.8,11.4,992.1,WNW,283,1.7,5.6,91,0.0,,,0.0,33,0,n/a,2026-05-08T20:24:54Z
2026-05-09 08:29:59,12.9,11.4,992.3,WNW,283,2.3,5.6,91,0.0,,,0.0,47,0,n/a,2026-05-08T20:29:59Z
2026-05-09 08:34:56,13,11.5,992.4,SE,125,1.8,5.6,91,0.0,,,0.0,56,0,n/a,2026-05-08T20:34:56Z
2026-05-09 08:39:55,13,11.6,992.4,West,272,1.8,5.6,91,0.0,,,0.0,54,0,n/a,2026-05-08T20:39:55Z
2026-05-09 08:44:58,13.1,11.6,992.5,West,272,3.1,6.4,91,0.0,,,0.0,32,0,n/a,2026-05-08T20:44:58Z
2026-05-09 08:49:55,13.1,11.7,992.5,West,268,2.8,6.4,91,0.0,,,0.0,32,0,n/a,2026-05-08T20:49:55Z
2026-05-09 08:54:58,13.2,11.7,992.6,WNW,288,2.3,5.6,91,0.0,,,0.0,37,0,n/a,2026-05-08T20:54:58Z
2026-05-09 08:59:55,13.2,11.7,992.7,WSW,253,1.9,5.6,91,0.0,,,0.0,56,0,n/a,2026-05-08T20:59:55Z
2026-05-09 09:04:57,13.2,11.8,992.8,West,259,2.2,9.7,91,0.0,,,0.0,60,0,n/a,2026-05-08T21:04:57Z
2026-05-09 09:09:55,13.3,11.8,992.8,WNW,295,1.5,3.7,91,0.0,,,0.0,88,0,n/a,2026-05-08T21:09:55Z
2026-05-09 09:14:54,13.4,11.9,992.8,WNW,284,2.4,9.7,91,0.0,,,0.0,120,0,n/a,2026-05-08T21:14:54Z
2026-05-09 09:19:56,13.5,12,992.8,WNW,286,3,9.7,91,0.0,,,0.0,98,0,n/a,2026-05-08T21:19:56Z
2026-05-09 09:24:59,13.5,12.1,992.6,West,266,3.7,9.7,91,0.0,,,0.0,88,0,n/a,2026-05-08T21:24:59Z
2026-05-09 09:29:56,13.6,12.1,992.4,West,269,3.4,9.7,91,0.0,,,0.0,100,0,n/a,2026-05-08T21:29:56Z
2026-05-09 09:34:54,13.6,12.2,992.5,West,279,3.1,6.4,91,0.0,,,0.0,56,0,n/a,2026-05-08T21:34:54Z
2026-05-09 09:39:59,13.6,12.2,992.5,West,279,3.9,9.7,91,0.0,,,0.0,51,0,n/a,2026-05-08T21:39:59Z
2026-05-09 09:44:58,13.6,12,992.5,West,279,4,9.7,90,0.0,,,0.0,60,0,n/a,2026-05-08T21:44:58Z
2026-05-09 09:49:54,13.6,12,992.6,West,279,1.8,5.6,90,0.0,,,0.0,56,0,n/a,2026-05-08T21:49:54Z
2026-05-09 09:54:56,13.7,12.1,992.9,West,266,3,6.4,90,0.0,,,0.0,53,0,n/a,2026-05-08T21:54:56Z
2026-05-09 09:59:58,13.7,12.1,993.0,West,262,2.6,9.7,90,0.0,,,0.0,44,0,n/a,2026-05-08T21:59:58Z
2026-05-09 10:04:56,13.7,12.1,993.0,WNW,301,1.8,9.3,90,0.0,,,0.0,98,0,n/a,2026-05-08T22:04:56Z
2026-05-09 10:09:58,13.7,12.1,993.0,NW,324,2.4,6.4,90,0.0,,,0.0,130,0.5,n/a,2026-05-08T22:09:58Z
2026-05-09 10:14:55,13.8,12.2,993.1,West,268,3.2,13,90,0.0,,,0.0,241,0.7,n/a,2026-05-08T22:14:55Z
2026-05-09 10:19:56,13.9,12.3,993.1,West,268,2.7,6.4,90,0.0,,,0.0,246,0.8,n/a,2026-05-08T22:19:56Z
2026-05-09 10:24:56,14.1,12.4,993.3,West,262,3.4,6.4,89.2,0.0,,,0.0,260,0.8,n/a,2026-05-08T22:24:56Z
2026-05-09 10:29:59,14.2,12.4,993.3,WSW,253,3.3,11.3,89,0.0,,,0.0,260,0.8,n/a,2026-05-08T22:29:59Z
2026-05-09 10:34:57,14.2,12.3,993.2,West,270,3.8,11.3,88,0.0,,,0.0,199,0.8,n/a,2026-05-08T22:34:57Z
2026-05-09 10:39:55,14.3,12.4,993.1,West,267,3.4,6.4,88,0.0,,,0.0,156,0.7,n/a,2026-05-08T22:39:55Z
2026-05-09 10:44:59,14.4,12.3,993.0,West,271,1.2,3.7,87,0.0,,,0.0,193,0.9,n/a,2026-05-08T22:44:59Z
2026-05-09 10:49:55,14.5,12.3,992.9,West,274,2,6.4,87,0.0,,,0.0,478,1.3,n/a,2026-05-08T22:49:55Z
2026-05-09 10:54:58,14.8,12.6,992.9,NW,314,1.6,5.6,87,0.0,,,0.0,519,1.3,n/a,2026-05-08T22:54:58Z
2026-05-09 10:59:54,15.1,12.8,992.9,NNW,332,2.6,6.4,85.8,0.0,,,0.0,476,1.3,n/a,2026-05-08T22:59:54Z
2026-05-09 11:04:55,15.4,12.9,992.9,ESE,113,1.7,5.6,85,0.0,,,0.0,504,1.4,n/a,2026-05-08T23:04:55Z
2026-05-09 11:09:58,15.6,12.8,993.0,East,96,1.5,5.6,83.5,0.0,,,0.0,397,1.4,n/a,2026-05-08T23:09:58Z
2026-05-09 11:14:55,15.8,12.8,993.0,West,280,1.2,5.6,82.7,0.0,,,0.0,497,1.4,n/a,2026-05-08T23:14:55Z
2026-05-09 11:19:56,16,12.9,992.9,SSE,163,1.9,6.4,81.7,0.0,,,0.0,464,1.4,n/a,2026-05-08T23:19:56Z
2026-05-09 11:24:59,16.1,12.6,993.0,West,272,4.1,9.7,80.1,0.0,,,0.0,480,1.5,n/a,2026-05-08T23:24:59Z
2026-05-09 11:29:58,16.2,12.8,993.0,West,276,4.7,9.7,80.2,0.0,,,0.0,471,1.5,n/a,2026-05-08T23:29:58Z
2026-05-09 11:34:55,16.3,12.6,992.9,West,276,4.8,9.7,79,0.0,,,0.0,438,1.5,n/a,2026-05-08T23:34:55Z
2026-05-09 11:39:54,16.3,12.6,992.9,WNW,285,3.9,9.3,79,0.0,,,0.0,443,1.5,n/a,2026-05-08T23:39:54Z
2026-05-09 11:44:59,16.4,12.7,992.8,West,271,2.8,6.4,78.8,0.0,,,0.0,462,1.5,n/a,2026-05-08T23:44:59Z
2026-05-09 11:49:55,16.6,12.7,992.7,West,275,2.6,6.4,77.7,0.0,,,0.0,464,1.6,n/a,2026-05-08T23:49:55Z
2026-05-09 11:54:59,16.8,12.8,992.7,West,277,1.7,5.6,77.4,0.0,,,0.0,466,1.6,n/a,2026-05-08T23:54:59Z
2026-05-09 11:59:55,17,13,992.7,WNW,284,1.9,6.4,77,0.0,,,0.0,469,1.6,n/a,2026-05-08T23:59:55Z
2026-05-09 12:04:58,17.2,12.8,992.6,West,276,4.9,9.7,75.5,0.0,,,0.0,469,1.6,n/a,2026-05-09T00:04:58Z
2026-05-09 12:09:54,17.2,12.6,992.6,West,275,2.3,6.4,74.2,0.0,,,0.0,469,1.6,n/a,2026-05-09T00:09:54Z
2026-05-09 12:14:58,17.3,12.6,992.6,West,271,3,6.4,73.8,0.0,,,0.0,473,1.6,n/a,2026-05-09T00:14:58Z
2026-05-09 12:19:59,17.4,12.7,992.6,WSW,252,1.9,5.6,73.8,0.0,,,0.0,478,1.6,n/a,2026-05-09T00:19:59Z
2026-05-09 12:24:57,17.6,12.7,992.5,West,259,1.7,6.4,73,0.0,,,0.0,476,1.6,n/a,2026-05-09T00:24:57Z
2026-05-09 12:29:55,17.8,12.8,992.5,West,280,3.1,9.7,72.8,0.0,,,0.0,475,1.6,n/a,2026-05-09T00:29:55Z
2026-05-09 12:34:54,17.9,12.9,992.4,WNW,287,4.7,11.3,72.4,0.0,,,0.0,476,1.6,n/a,2026-05-09T00:34:54Z
2026-05-09 12:39:58,17.8,12.8,992.4,NNW,329,2.5,5.6,72.2,0.0,,,0.0,471,1.6,n/a,2026-05-09T00:39:58Z
2026-05-09 12:44:56,17.8,12.8,992.3,NNW,338,1.9,6.4,72.6,0.0,,,0.0,478,1.6,n/a,2026-05-09T00:44:56Z
2026-05-09 12:49:53,17.9,13,992.2,NW,319,2.7,5.6,73,0.0,,,0.0,480,1.6,n/a,2026-05-09T00:49:53Z